Time;durP1;ratioP1;P1;durP2;ratioP2;P2;SDS_P1;SDS_P2;PMS_P1;PMS_P2;Temp;Humidity;BMP_temperature;BMP_pressure;BME280_temperature;BME280_humidity;BME280_pressure;Samples;Min_cycle;Max_cycle;Signal;HPM_P1;HPM_P2
2022/11/20 00:01:18;;;;;;;2.63;0.10;;;19.20;49.20;;;;;;5110918;28;20132;-60
2022/11/20 00:03:47;;;;;;;2.45;0.50;;;19.20;49.20;;;;;;5111477;27;20055;-60
2022/11/20 00:06:16;;;;;;;1.20;0.10;;;19.20;49.20;;;;;;5129673;27;20104;-59
2022/11/20 00:08:43;;;;;;;0.60;0.10;;;19.20;49.10;;;;;;5130659;27;20410;-59
2022/11/20 00:11:12;;;;;;;1.25;0.20;;;19.20;49.20;;;;;;5123364;27;20040;-60
2022/11/20 00:13:40;;;;;;;0.20;0.10;;;19.20;49.20;;;;;;5110360;28;20031;-59
2022/11/20 00:16:10;;;;;;;1.10;0.10;;;19.20;49.20;;;;;;5110413;28;20134;-59
2022/11/20 00:18:37;;;;;;;1.33;0.10;;;19.20;49.20;;;;;;5110210;28;20043;-60
2022/11/20 00:21:05;;;;;;;0.57;0.40;;;19.20;49.10;;;;;;5110185;28;20039;-58
2022/11/20 00:23:32;;;;;;;1.98;0.20;;;19.20;49.10;;;;;;5091735;28;20443;-60
2022/11/20 00:26:04;;;;;;;0.68;0.20;;;19.20;49.00;;;;;;5110309;28;20032;-60
2022/11/20 00:28:31;;;;;;;1.45;0.15;;;19.20;49.10;;;;;;5110168;28;20042;-59
2022/11/20 00:31:04;;;;;;;1.13;0.13;;;19.10;49.70;;;;;;5093015;28;20551;-58
2022/11/20 00:33:31;;;;;;;2.40;0.20;;;19.20;49.10;;;;;;5089579;28;20044;-61
2022/11/20 00:36:02;;;;;;;1.90;0.25;;;19.10;49.20;;;;;;5089604;28;20036;-60
2022/11/20 00:38:29;;;;;;;0.75;0.10;;;19.10;49.20;;;;;;5089278;28;20052;-60
2022/11/20 00:40:57;;;;;;;1.33;0.20;;;19.10;49.30;;;;;;5089609;28;20040;-61
2022/11/20 00:43:24;;;;;;;1.02;0.10;;;19.10;49.40;;;;;;5089726;28;20054;-61
2022/11/20 00:45:51;;;;;;;1.38;0.98;;;19.10;49.50;;;;;;5101249;28;20044;-61
2022/11/20 00:48:20;;;;;;;0.65;0.57;;;19.10;49.40;;;;;;5109739;28;20134;-61
2022/11/20 00:50:47;;;;;;;3.22;0.28;;;19.10;49.50;;;;;;5109723;28;20036;-62
2022/11/20 00:53:15;;;;;;;1.23;0.47;;;19.10;49.50;;;;;;5109286;28;20075;-61
2022/11/20 00:55:42;;;;;;;0.65;0.17;;;19.10;49.70;;;;;;5109675;28;20036;-61
2022/11/20 00:58:09;;;;;;;1.55;0.10;;;19.00;49.50;;;;;;5109539;28;20051;-60
2022/11/20 01:00:36;;;;;;;3.50;0.10;;;19.00;49.60;;;;;;5109908;28;20036;-60
2022/11/20 01:03:03;;;;;;;1.25;0.25;;;19.00;49.40;;;;;;5109466;28;20837;-61
2022/11/20 01:05:35;;;;;;;1.65;0.10;;;19.00;49.40;;;;;;5108962;28;20508;-60
2022/11/20 01:08:02;;;;;;;3.95;0.50;;;19.00;49.50;;;;;;5109275;28;20415;-61
2022/11/20 01:10:29;;;;;;;1.13;0.47;;;19.00;49.50;;;;;;5109229;28;20046;-61
2022/11/20 01:15:37;;;;;;;1.25;0.10;;;19.00;49.50;;;;;;5108392;28;20261;-62
2022/11/20 01:18:05;;;;;;;0.57;0.20;;;19.00;49.50;;;;;;5102039;28;20040;-61
2022/11/20 01:20:35;;;;;;;0.17;0.10;;;19.00;49.60;;;;;;5088265;28;20117;-61
2022/11/20 01:23:02;;;;;;;0.30;0.10;;;19.00;49.60;;;;;;5088654;28;20051;-59
2022/11/20 01:25:29;;;;;;;0.65;0.13;;;19.00;49.80;;;;;;5089060;28;20054;-61
2022/11/20 01:27:56;;;;;;;1.00;0.20;;;19.00;49.70;;;;;;5070683;28;20036;-61
2022/11/20 01:30:23;;;;;;;0.75;0.30;;;19.00;49.60;;;;;;5088744;28;20046;-61
2022/11/20 01:32:50;;;;;;;1.45;0.25;;;19.00;49.70;;;;;;5088645;28;20048;-61
2022/11/20 01:35:18;;;;;;;0.30;0.20;;;19.00;49.80;;;;;;5099294;28;20067;-60
2022/11/20 01:37:46;;;;;;;0.85;0.10;;;18.90;49.60;;;;;;5108736;28;20878;-60
2022/11/20 01:40:13;;;;;;;1.05;0.75;;;18.90;49.60;;;;;;5108884;28;20144;-61
2022/11/20 01:46:13;;;;;;;3.17;0.10;;;19.00;49.50;;;;;;5108785;28;20043;-59
2022/11/20 01:48:47;;;;;;;0.50;0.10;;;18.90;49.50;;;;;;5108666;28;20047;-61
2022/11/20 01:51:20;;;;;;;0.35;0.10;;;18.90;49.60;;;;;;5108288;28;20088;-61
2022/11/20 01:53:49;;;;;;;1.20;0.10;;;18.90;49.70;;;;;;5108929;28;20071;-61
2022/11/20 01:56:16;;;;;;;0.85;0.30;;;18.80;49.50;;;;;;5108785;28;20035;-60
2022/11/20 01:58:48;;;;;;;0.28;0.10;;;18.90;49.70;;;;;;5108880;28;20652;-61
2022/11/20 02:01:15;;;;;;;1.13;0.85;;;18.80;49.50;;;;;;5108778;28;20062;-61
2022/11/20 02:03:44;;;;;;;1.48;0.10;;;18.80;49.50;;;;;;5090056;28;20512;-61
2022/11/20 02:06:17;;;;;;;1.15;0.10;;;18.80;49.40;;;;;;5110903;28;20408;-61
2022/11/20 02:08:44;;;;;;;3.42;0.22;;;18.80;49.50;;;;;;5089565;28;20556;-60
2022/11/20 02:11:13;;;;;;;1.85;0.10;;;18.80;49.60;;;;;;5096565;28;20036;-60
2022/11/20 02:13:43;;;;;;;1.40;0.10;;;18.80;49.60;;;;;;5111137;28;20054;-61
2022/11/20 02:16:13;;;;;;;0.63;0.10;;;18.80;49.50;;;;;;5109149;28;20044;-61
2022/11/20 02:18:41;;;;;;;0.63;0.10;;;18.80;49.40;;;;;;5108686;28;20082;-60
2022/11/20 02:21:19;;;;;;;0.70;0.10;;;18.80;49.40;;;;;;5112083;28;20043;-61
2022/11/20 02:24:08;;;;;;;0.50;0.10;;;18.80;49.40;;;;;;5113373;28;20195;-61
2022/11/20 02:26:47;;;;;;;0.65;0.10;;;18.80;49.40;;;;;;5113385;28;20039;-62
2022/11/20 02:29:17;;;;;;;1.80;0.47;;;18.70;49.40;;;;;;5112560;28;20049;-61
2022/11/20 02:31:45;;;;;;;2.05;0.13;;;18.80;49.50;;;;;;5112544;28;20070;-61
2022/11/20 02:34:12;;;;;;;2.38;0.10;;;18.80;49.50;;;;;;5111892;28;20535;-60
2022/11/20 02:36:41;;;;;;;0.55;0.10;;;18.80;49.50;;;;;;5112508;28;20039;-61
2022/11/20 02:39:12;;;;;;;1.20;0.73;;;18.80;49.40;;;;;;5112329;28;20680;-61
2022/11/20 02:41:39;;;;;;;0.43;0.10;;;18.70;49.20;;;;;;5112143;28;20048;-61
2022/11/20 02:44:06;;;;;;;1.52;0.15;;;18.70;49.10;;;;;;5112392;28;20532;-60
2022/11/20 02:46:34;;;;;;;1.65;0.17;;;18.70;49.20;;;;;;5112080;28;20067;-61
2022/11/20 02:49:02;;;;;;;0.75;0.10;;;18.70;49.20;;;;;;5111706;28;20042;-61
2022/11/20 02:51:29;;;;;;;0.60;0.10;;;18.70;49.30;;;;;;5112065;28;20118;-61
2022/11/20 02:53:57;;;;;;;1.02;0.10;;;18.70;49.30;;;;;;5119850;27;20027;-61
2022/11/20 02:56:25;;;;;;;0.38;0.20;;;18.70;49.30;;;;;;5093025;28;20083;-61
2022/11/20 02:58:52;;;;;;;1.02;0.10;;;18.70;49.20;;;;;;5091439;28;20051;-61
2022/11/20 03:01:19;;;;;;;2.05;0.13;;;18.70;49.20;;;;;;5091598;28;20048;-63
2022/11/20 03:03:48;;;;;;;2.00;0.20;;;18.70;49.10;;;;;;5091141;28;20039;-63
2022/11/20 03:06:16;;;;;;;0.75;0.20;;;18.70;49.10;;;;;;5091508;28;20048;-61
2022/11/20 03:08:43;;;;;;;0.50;0.10;;;18.70;49.20;;;;;;5091212;28;20039;-61
2022/11/20 03:11:11;;;;;;;0.20;0.10;;;18.70;49.20;;;;;;5098591;28;20135;-61
2022/11/20 03:13:40;;;;;;;1.48;0.13;;;18.70;49.20;;;;;;5111798;28;20144;-61
2022/11/20 03:16:10;;;;;;;0.52;0.10;;;18.70;49.10;;;;;;5111340;28;20044;-62
2022/11/20 03:18:37;;;;;;;0.30;0.15;;;18.70;49.10;;;;;;5111596;28;20126;-62
2022/11/20 03:21:04;;;;;;;0.98;0.20;;;18.70;49.10;;;;;;5111276;28;20039;-61
2022/11/20 03:23:32;;;;;;;1.10;0.08;;;18.70;49.00;;;;;;5111237;28;20118;-60
2022/11/20 03:26:13;;;;;;;0.85;0.00;;;18.70;49.00;;;;;;5111310;28;20187;-61
2022/11/20 03:28:42;;;;;;;0.50;0.10;;;18.70;48.90;;;;;;5111307;28;20047;-61
2022/11/20 03:31:12;;;;;;;1.25;0.43;;;18.70;49.00;;;;;;5109944;28;20059;-59
2022/11/20 03:33:39;;;;;;;0.95;0.00;;;18.70;49.00;;;;;;5111163;28;20054;-61
2022/11/20 03:36:10;;;;;;;1.15;0.10;;;18.70;49.00;;;;;;5110918;28;20051;-61
2022/11/20 03:38:38;;;;;;;2.72;0.80;;;18.70;49.00;;;;;;5110779;28;20540;-61
2022/11/20 03:41:07;;;;;;;0.80;0.10;;;18.70;49.00;;;;;;5110592;28;20047;-61
2022/11/20 03:43:34;;;;;;;2.05;0.10;;;18.70;49.00;;;;;;5101228;28;20040;-61
2022/11/20 03:46:02;;;;;;;1.83;0.10;;;18.70;49.00;;;;;;5103574;28;20032;-61
2022/11/20 03:48:30;;;;;;;1.55;0.10;;;18.70;48.90;;;;;;5110946;28;20122;-62
2022/11/20 03:51:08;;;;;;;4.95;0.10;;;18.60;48.70;;;;;;5110898;28;20050;-61
2022/11/20 03:53:35;;;;;;;0.75;0.10;;;18.70;48.60;;;;;;5090336;28;20492;-62
2022/11/20 03:56:03;;;;;;;1.65;0.20;;;18.60;48.70;;;;;;5090384;28;20790;-61
2022/11/20 03:58:30;;;;;;;2.97;0.63;;;18.60;48.70;;;;;;5113782;27;20100;-61
2022/11/20 04:00:58;;;;;;;0.55;0.10;;;18.60;48.60;;;;;;5130851;27;20046;-61
2022/11/20 04:03:26;;;;;;;0.15;0.10;;;18.60;48.70;;;;;;5131395;27;20122;-61
2022/11/20 04:05:53;;;;;;;0.10;0.10;;;18.60;48.60;;;;;;5131019;27;20067;-61
2022/11/20 04:08:20;;;;;;;0.30;0.30;;;18.60;48.60;;;;;;5098653;27;20036;-60
2022/11/20 04:10:47;;;;;;;1.67;0.10;;;18.60;48.70;;;;;;5094059;28;20042;-58
2022/11/20 04:13:14;;;;;;;1.35;0.10;;;18.60;48.70;;;;;;5110485;28;20056;-61
2022/11/20 04:15:41;;;;;;;0.32;0.10;;;18.60;48.80;;;;;;5102859;28;20039;-60
2022/11/20 04:18:08;;;;;;;1.25;1.00;;;18.60;48.80;;;;;;5097338;28;20126;-60
2022/11/20 04:20:37;;;;;;;1.33;0.10;;;18.60;48.70;;;;;;5090054;28;20046;-61
2022/11/20 04:23:04;;;;;;;2.17;0.25;;;18.60;48.70;;;;;;5089848;28;20933;-60
2022/11/20 04:25:31;;;;;;;0.77;0.05;;;18.60;48.70;;;;;;5071667;28;20047;-61
2022/11/20 04:27:58;;;;;;;0.10;0.10;;;18.60;48.70;;;;;;5090121;28;20166;-60
2022/11/20 04:30:25;;;;;;;5.28;0.20;;;18.60;48.70;;;;;;5089738;28;20043;-59
2022/11/20 04:32:52;;;;;;;0.50;0.10;;;18.60;48.80;;;;;;5089606;28;20488;-59
2022/11/20 04:35:19;;;;;;;0.25;0.10;;;18.60;48.90;;;;;;5089734;28;20044;-62
2022/11/20 04:37:48;;;;;;;0.63;0.10;;;18.60;48.90;;;;;;5071889;28;20120;-61
2022/11/20 04:40:15;;;;;;;1.08;0.10;;;18.60;48.80;;;;;;5089711;28;20051;-62
2022/11/20 04:42:42;;;;;;;1.65;0.10;;;18.60;48.80;;;;;;5089226;28;20040;-59
2022/11/20 04:45:10;;;;;;;0.20;0.05;;;18.60;48.80;;;;;;5095548;28;20043;-54
2022/11/20 04:47:37;;;;;;;1.27;0.00;;;18.60;48.80;;;;;;5110306;28;20049;-60
2022/11/20 04:50:04;;;;;;;0.82;0.00;;;18.60;48.90;;;;;;5110121;28;20054;-57
2022/11/20 04:52:31;;;;;;;0.70;0.10;;;18.60;48.60;;;;;;5107124;28;20088;-60
2022/11/20 04:54:59;;;;;;;0.43;0.10;;;18.60;48.70;;;;;;5109727;28;20044;-59
2022/11/20 04:57:26;;;;;;;0.35;0.20;;;18.60;48.70;;;;;;5109349;28;20119;-59
2022/11/20 04:59:53;;;;;;;0.20;0.10;;;18.60;48.70;;;;;;5109518;28;20507;-59
2022/11/20 05:02:21;;;;;;;0.52;0.10;;;18.50;48.60;;;;;;5109671;28;20158;-59
2022/11/20 05:04:48;;;;;;;0.20;0.00;;;18.50;48.60;;;;;;5109628;28;20872;-56
2022/11/20 05:07:15;;;;;;;5.70;0.13;;;18.50;48.60;;;;;;5109595;28;20046;-59
2022/11/20 05:09:42;;;;;;;1.65;0.98;;;18.60;48.70;;;;;;5109440;28;20051;-59
2022/11/20 05:12:10;;;;;;;1.27;0.25;;;18.50;48.60;;;;;;5108787;28;20097;-57
2022/11/20 05:14:37;;;;;;;0.10;0.10;;;18.50;48.70;;;;;;5109353;28;20050;-58
2022/11/20 05:17:04;;;;;;;0.10;0.00;;;18.50;48.60;;;;;;5109371;28;20434;-58
2022/11/20 05:19:31;;;;;;;0.57;0.30;;;18.50;48.60;;;;;;5109110;28;20043;-58
2022/11/20 05:21:58;;;;;;;3.35;0.17;;;18.50;48.60;;;;;;5090271;28;20079;-59
2022/11/20 05:24:25;;;;;;;0.35;0.00;;;18.50;48.60;;;;;;5088580;28;20411;-59
2022/11/20 05:26:52;;;;;;;3.05;0.10;;;18.50;48.60;;;;;;5088315;28;20046;-60
2022/11/20 05:29:20;;;;;;;0.10;0.10;;;18.50;48.60;;;;;;5088894;28;20040;-59
2022/11/20 05:31:47;;;;;;;0.10;0.10;;;18.50;48.60;;;;;;5088805;28;20044;-59
2022/11/20 05:34:15;;;;;;;1.90;0.10;;;18.50;48.60;;;;;;5088478;28;20044;-57
2022/11/20 05:36:42;;;;;;;3.78;0.10;;;18.50;48.60;;;;;;5088630;28;20469;-57
2022/11/20 05:39:09;;;;;;;1.85;0.10;;;18.50;48.50;;;;;;5088498;28;20044;-59
2022/11/20 05:41:36;;;;;;;1.30;0.00;;;18.50;48.50;;;;;;5087924;28;20516;-59
2022/11/20 05:44:03;;;;;;;0.47;0.10;;;18.50;48.60;;;;;;5088231;28;20162;-59
2022/11/20 05:46:32;;;;;;;0.57;0.10;;;18.50;48.40;;;;;;5105697;28;20815;-57
2022/11/20 05:48:59;;;;;;;1.75;0.10;;;18.50;48.40;;;;;;5108396;28;20044;-57
2022/11/20 05:51:26;;;;;;;1.85;0.10;;;18.50;48.30;;;;;;5120649;27;20114;-56
2022/11/20 05:53:54;;;;;;;0.10;0.10;;;18.50;48.30;;;;;;5108461;28;20036;-59
2022/11/20 05:56:22;;;;;;;0.95;0.10;;;18.50;48.30;;;;;;5107663;28;20444;-59
2022/11/20 05:58:49;;;;;;;0.25;0.10;;;18.50;48.30;;;;;;5108645;28;20050;-59
2022/11/20 06:01:18;;;;;;;0.65;0.30;;;18.50;47.80;;;;;;5108526;28;20053;-60
2022/11/20 06:03:47;;;;;;;1.00;0.03;;;18.50;48.90;;;;;;5114281;27;20039;-59
2022/11/20 06:06:15;;;;;;;0.10;0.00;;;18.50;48.40;;;;;;5128826;27;20047;-60
2022/11/20 06:08:42;;;;;;;2.35;0.10;;;18.50;48.40;;;;;;5115330;27;20036;-59
2022/11/20 06:11:11;;;;;;;1.30;0.03;;;18.50;48.50;;;;;;5094842;28;20135;-59
2022/11/20 06:13:38;;;;;;;0.10;0.10;;;18.50;48.40;;;;;;5108126;28;20110;-57
2022/11/20 06:16:06;;;;;;;2.80;0.68;;;18.50;48.40;;;;;;5107700;28;20566;-59
2022/11/20 06:18:33;;;;;;;2.38;0.10;;;18.50;48.50;;;;;;5108019;28;20032;-59
2022/11/20 06:21:03;;;;;;;0.22;0.10;;;18.50;48.50;;;;;;5108353;28;20104;-59
2022/11/20 06:23:31;;;;;;;1.38;0.10;;;18.50;48.60;;;;;;5101365;28;20113;-59
2022/11/20 06:25:59;;;;;;;0.63;0.10;;;18.50;48.40;;;;;;5088629;28;20048;-59
2022/11/20 06:28:26;;;;;;;0.60;0.22;;;18.50;48.30;;;;;;5087741;28;20040;-59
2022/11/20 06:30:53;;;;;;;0.20;0.10;;;18.50;48.30;;;;;;5088493;28;20038;-59
2022/11/20 06:33:20;;;;;;;2.33;0.10;;;18.50;48.20;;;;;;5097986;28;20135;-59
2022/11/20 06:35:47;;;;;;;0.10;0.10;;;18.50;48.20;;;;;;5087408;28;20420;-56
2022/11/20 06:38:15;;;;;;;1.95;0.10;;;18.50;48.20;;;;;;5087621;28;20074;-61
2022/11/20 06:40:43;;;;;;;2.08;0.10;;;18.50;48.40;;;;;;5087317;28;20044;-61
2022/11/20 06:43:10;;;;;;;2.90;0.10;;;18.50;48.30;;;;;;5087105;28;20576;-61
2022/11/20 06:45:37;;;;;;;3.75;0.28;;;18.50;48.30;;;;;;5097467;28;20060;-61
2022/11/20 06:48:04;;;;;;;6.68;0.20;;;18.50;48.40;;;;;;5107973;28;20048;-60
2022/11/20 06:50:31;;;;;;;4.00;0.10;;;18.50;48.50;;;;;;5105579;28;20040;-60
2022/11/20 06:53:02;;;;;;;0.88;0.10;;;18.50;48.50;;;;;;5090526;28;20496;-58
2022/11/20 06:55:31;;;;;;;5.75;0.20;;;18.50;48.70;;;;;;5087720;28;20040;-70
2022/11/20 06:57:58;;;;;;;6.57;0.10;;;18.50;48.60;;;;;;5052977;28;20062;-65
2022/11/20 07:00:25;;;;;;;4.90;0.40;;;18.50;48.30;;;;;;5069435;28;20424;-68
2022/11/20 07:02:52;;;;;;;6.97;0.30;;;18.50;48.20;;;;;;5087854;28;20127;-63
2022/11/20 07:05:19;;;;;;;0.60;0.10;;;18.50;48.20;;;;;;5069840;28;20461;-64
2022/11/20 07:07:46;;;;;;;3.42;0.20;;;18.50;48.10;;;;;;5097195;28;20039;-65
2022/11/20 07:10:14;;;;;;;1.65;0.30;;;18.40;48.10;;;;;;5096086;28;20123;-65
2022/11/20 07:12:42;;;;;;;8.32;0.40;;;18.40;48.10;;;;;;5111389;28;20131;-66
2022/11/20 07:15:10;;;;;;;6.88;0.10;;;18.40;48.10;;;;;;5111755;28;20040;-66
2022/11/20 07:17:37;;;;;;;2.55;0.25;;;18.40;48.10;;;;;;5111930;28;20047;-68
2022/11/20 07:20:04;;;;;;;0.63;0.10;;;18.30;48.00;;;;;;5111777;28;20722;-73
2022/11/20 07:22:31;;;;;;;1.30;1.10;;;18.30;48.10;;;;;;5123840;27;20532;-70
2022/11/20 07:24:58;;;;;;;5.38;0.30;;;18.30;48.30;;;;;;5132533;27;20606;-70
2022/11/20 07:27:25;;;;;;;79.90;5.30;;;18.30;48.30;;;;;;5132293;27;20078;-62
2022/11/20 07:29:54;;;;;;;5.72;0.40;;;18.30;48.70;;;;;;5132139;27;20046;-67
2022/11/20 07:32:21;;;;;;;4.57;0.10;;;18.30;48.90;;;;;;5131528;27;20043;-66
2022/11/20 07:34:48;;;;;;;3.20;0.32;;;18.20;49.10;;;;;;5112772;27;20112;-65
2022/11/20 07:37:15;;;;;;;1.63;0.30;;;18.10;49.50;;;;;;5130946;27;20150;-67
2022/11/20 07:39:42;;;;;;;8.30;3.13;;;18.10;49.50;;;;;;5131764;27;20043;-65
2022/11/20 07:42:11;;;;;;;5.47;0.25;;;18.00;49.50;;;;;;5131638;27;20182;-65
2022/11/20 07:44:39;;;;;;;7.13;0.35;;;18.00;49.60;;;;;;5129564;27;20055;-66
2022/11/20 07:47:07;;;;;;;4.30;0.17;;;17.90;49.60;;;;;;5092838;28;20048;-64
2022/11/20 07:49:34;;;;;;;2.63;0.10;;;17.80;49.70;;;;;;5090608;28;20062;-67
2022/11/20 07:52:01;;;;;;;6.07;1.08;;;17.80;49.70;;;;;;5104401;27;20035;-65
2022/11/20 07:54:28;;;;;;;2.65;0.45;;;17.70;49.70;;;;;;5092432;28;20067;-65
2022/11/20 07:56:55;;;;;;;4.53;0.63;;;17.60;49.80;;;;;;5110611;28;20595;-65
2022/11/20 07:59:22;;;;;;;3.75;0.43;;;17.60;49.80;;;;;;5110361;28;20043;-65
2022/11/20 08:01:49;;;;;;;4.10;1.00;;;17.60;49.90;;;;;;5111069;28;20053;-66
2022/11/20 08:04:18;;;;;;;3.72;0.60;;;17.50;50.50;;;;;;5092627;28;20043;-66
2022/11/20 08:06:45;;;;;;;3.38;0.45;;;17.50;50.00;;;;;;5092233;28;20491;-66
2022/11/20 08:09:12;;;;;;;3.35;0.68;;;17.50;49.90;;;;;;5110679;28;20130;-65
2022/11/20 08:14:23;;;;;;;4.05;0.40;;;17.40;49.90;;;;;;5110307;28;20056;-66
2022/11/20 08:16:50;;;;;;;1.83;0.30;;;17.40;50.00;;;;;;5110625;28;20427;-65
2022/11/20 08:19:19;;;;;;;3.17;0.63;;;17.40;50.00;;;;;;5109781;28;20122;-65
2022/11/20 08:21:46;;;;;;;2.65;0.68;;;17.30;49.90;;;;;;5110089;28;20044;-65
2022/11/20 08:24:13;;;;;;;5.32;0.38;;;17.30;50.00;;;;;;5110363;28;20075;-65
2022/11/20 08:26:41;;;;;;;5.00;1.02;;;17.30;49.90;;;;;;5110352;28;20036;-66
2022/11/20 08:29:08;;;;;;;4.78;0.22;;;17.30;50.00;;;;;;5110541;28;20519;-66
2022/11/20 08:31:36;;;;;;;3.78;0.63;;;17.30;50.00;;;;;;5110191;28;20051;-66
2022/11/20 08:34:03;;;;;;;3.95;0.35;;;17.30;50.00;;;;;;5108075;28;20539;-66
2022/11/20 08:36:34;;;;;;;3.78;0.68;;;17.30;50.00;;;;;;5112612;27;20047;-66
2022/11/20 08:39:02;;;;;;;3.42;0.38;;;17.30;50.00;;;;;;5130601;27;20031;-66
2022/11/20 08:41:32;;;;;;;2.00;0.43;;;17.30;50.00;;;;;;5130793;27;20122;-65
2022/11/20 08:44:01;;;;;;;2.72;0.28;;;17.30;50.00;;;;;;5130364;27;20047;-66
2022/11/20 08:46:33;;;;;;;2.83;0.30;;;17.30;50.00;;;;;;5113311;27;20051;-65
2022/11/20 08:49:01;;;;;;;2.53;0.20;;;17.30;49.90;;;;;;5109859;28;20035;-66
2022/11/20 08:51:28;;;;;;;1.65;0.20;;;17.20;49.90;;;;;;5091426;28;20198;-66
2022/11/20 08:53:56;;;;;;;3.00;0.45;;;17.30;50.00;;;;;;5109794;28;20062;-66
2022/11/20 08:56:23;;;;;;;1.70;0.32;;;17.20;49.90;;;;;;5109736;28;20195;-66
2022/11/20 08:58:51;;;;;;;2.05;0.28;;;17.20;50.00;;;;;;5109853;28;20048;-65
2022/11/20 09:01:18;;;;;;;3.13;0.30;;;17.20;49.90;;;;;;5109548;28;20481;-66
2022/11/20 09:03:45;;;;;;;2.80;0.30;;;17.20;50.00;;;;;;5109614;28;20126;-65
2022/11/20 09:06:13;;;;;;;2.38;0.38;;;17.20;50.00;;;;;;5109283;28;20039;-67
2022/11/20 09:08:40;;;;;;;1.15;0.10;;;17.20;50.00;;;;;;5109836;28;20071;-66
2022/11/20 09:11:09;;;;;;;2.05;0.20;;;17.20;50.00;;;;;;5109522;28;20038;-66
2022/11/20 09:13:37;;;;;;;10.10;0.30;;;17.30;50.10;;;;;;5108998;28;20131;-65
2022/11/20 09:16:07;;;;;;;5.68;0.75;;;17.20;50.00;;;;;;5109238;28;20054;-66
2022/11/20 09:18:35;;;;;;;1.17;0.30;;;17.20;50.00;;;;;;5109133;28;20071;-66
2022/11/20 09:21:05;;;;;;;2.10;0.20;;;17.20;50.00;;;;;;5109368;28;20052;-66
2022/11/20 09:23:34;;;;;;;1.00;0.13;;;17.20;50.00;;;;;;5098089;28;20040;-65
2022/11/20 09:26:03;;;;;;;0.30;0.17;;;17.30;50.10;;;;;;5089136;28;20032;-66
2022/11/20 09:28:32;;;;;;;0.93;0.20;;;17.30;50.10;;;;;;5088777;28;20093;-66
2022/11/20 09:30:59;;;;;;;1.15;0.28;;;17.20;50.00;;;;;;5088989;28;20040;-67
2022/11/20 09:33:26;;;;;;;0.75;0.20;;;17.20;50.00;;;;;;5088560;28;20472;-66
2022/11/20 09:35:53;;;;;;;0.40;0.10;;;17.20;50.00;;;;;;5088581;28;20063;-66
2022/11/20 09:38:20;;;;;;;2.05;0.10;;;17.30;50.10;;;;;;5088655;28;20052;-66
2022/11/20 09:40:53;;;;;;;1.52;0.38;;;17.30;50.10;;;;;;5088584;28;20051;-66
2022/11/20 09:43:26;;;;;;;1.15;0.10;;;17.30;50.10;;;;;;5088349;28;20079;-65
2022/11/20 09:46:07;;;;;;;0.55;0.10;;;17.30;50.20;;;;;;5082377;28;20048;-65
2022/11/20 09:48:59;;;;;;;1.30;0.20;;;17.30;50.10;;;;;;5108348;28;20043;-66
2022/11/20 09:51:37;;;;;;;2.22;0.10;;;17.30;50.10;;;;;;5108710;28;20063;-66
2022/11/20 09:54:15;;;;;;;1.33;0.10;;;17.30;50.20;;;;;;5108622;28;20036;-66
2022/11/20 09:56:45;;;;;;;0.35;0.15;;;17.30;50.20;;;;;;5115342;27;20042;-65
2022/11/20 09:59:30;;;;;;;0.73;0.10;;;17.30;50.20;;;;;;5129292;27;20143;-66
2022/11/20 10:02:01;;;;;;;1.65;0.50;;;17.30;50.20;;;;;;5128755;27;20079;-67
2022/11/20 10:04:32;;;;;;;0.52;0.35;;;17.30;50.20;;;;;;5129245;27;20069;-66
2022/11/20 10:07:07;;;;;;;0.93;0.20;;;17.30;50.20;;;;;;5129257;27;20099;-66
2022/11/20 10:09:36;;;;;;;0.75;0.20;;;17.30;50.20;;;;;;5129270;27;20067;-65
2022/11/20 10:12:14;;;;;;;1.20;0.40;;;17.30;50.30;;;;;;5099903;28;20036;-66
2022/11/20 10:15:02;;;;;;;0.98;0.10;;;17.30;50.30;;;;;;5090209;28;20123;-65
2022/11/20 10:17:57;;;;;;;0.68;0.10;;;17.30;50.20;;;;;;5108272;28;20047;-65
2022/11/20 10:20:30;;;;;;;1.40;0.10;;;17.30;50.20;;;;;;5108286;28;20043;-65
2022/11/20 10:23:21;;;;;;;0.73;0.17;;;17.30;50.40;;;;;;5108597;28;20046;-65
2022/11/20 10:25:57;;;;;;;0.43;0.20;;;17.30;50.30;;;;;;5108635;28;20070;-65
2022/11/20 10:28:42;;;;;;;0.77;0.20;;;17.30;50.40;;;;;;5108286;28;20048;-66
2022/11/20 10:31:14;;;;;;;0.20;0.10;;;17.30;50.50;;;;;;5108213;28;20055;-65
2022/11/20 10:33:45;;;;;;;0.20;0.10;;;17.30;50.60;;;;;;5108613;28;20070;-66
2022/11/20 10:36:18;;;;;;;1.02;0.20;;;17.30;50.60;;;;;;5108248;28;20051;-65
2022/11/20 10:38:51;;;;;;;0.25;0.10;;;17.30;50.60;;;;;;5108334;28;20419;-65
2022/11/20 10:41:26;;;;;;;0.35;0.20;;;17.40;50.60;;;;;;5109724;28;20048;-66
2022/11/20 10:44:01;;;;;;;0.73;0.10;;;17.40;50.60;;;;;;5112299;28;20059;-65
2022/11/20 10:46:39;;;;;;;1.70;0.15;;;17.50;50.60;;;;;;5111975;28;20135;-66
2022/11/20 10:49:14;;;;;;;0.50;0.20;;;17.50;50.50;;;;;;5111912;28;20050;-66
2022/11/20 10:51:55;;;;;;;0.25;0.10;;;17.60;50.50;;;;;;5112081;28;20035;-65
2022/11/20 10:54:30;;;;;;;0.68;0.17;;;17.60;50.40;;;;;;5112310;28;20040;-66
2022/11/20 10:57:06;;;;;;;1.83;0.10;;;17.60;50.30;;;;;;5112218;28;20043;-66
2022/11/20 10:59:49;;;;;;;0.55;0.20;;;17.60;50.20;;;;;;5106755;28;20073;-65
2022/11/20 11:02:18;;;;;;;2.47;0.10;;;17.60;50.20;;;;;;5091416;28;20062;-65
2022/11/20 11:04:48;;;;;;;0.10;0.00;;;17.70;50.20;;;;;;5091651;28;20040;-66
2022/11/20 11:07:18;;;;;;;0.55;0.10;;;17.60;50.20;;;;;;5091548;28;20047;-66
2022/11/20 11:09:49;;;;;;;0.20;0.10;;;17.70;50.30;;;;;;5091591;28;20068;-65
2022/11/20 11:12:16;;;;;;;0.65;0.10;;;17.70;50.20;;;;;;5107873;28;20048;-66
2022/11/20 11:14:46;;;;;;;0.52;0.10;;;17.70;50.30;;;;;;5111374;28;20050;-66
2022/11/20 11:17:26;;;;;;;1.55;0.20;;;17.70;50.30;;;;;;5111605;28;20463;-66
2022/11/20 11:20:17;;;;;;;0.20;0.10;;;17.70;50.20;;;;;;5111656;28;20051;-66
2022/11/20 11:22:47;;;;;;;0.38;0.00;;;17.80;50.30;;;;;;5111392;28;20052;-66
2022/11/20 11:25:30;;;;;;;0.55;0.10;;;17.70;50.30;;;;;;5111352;28;20087;-66
2022/11/20 11:27:59;;;;;;;0.20;0.10;;;17.70;50.20;;;;;;5109728;28;20873;-67
2022/11/20 11:30:29;;;;;;;0.40;0.10;;;17.70;50.20;;;;;;5121650;27;20037;-66
2022/11/20 11:33:07;;;;;;;0.65;0.20;;;17.70;50.80;;;;;;5132031;27;20047;-66
2022/11/20 11:35:45;;;;;;;0.63;0.17;;;17.70;50.20;;;;;;5131845;27;20816;-66
2022/11/20 11:38:17;;;;;;;0.77;0.10;;;17.70;50.30;;;;;;5131997;27;20514;-65
2022/11/20 11:40:45;;;;;;;0.50;0.32;;;17.70;50.30;;;;;;5131946;27;20080;-66
2022/11/20 11:46:25;;;;;;;0.40;0.10;;;17.70;50.30;;;;;;5117241;27;20054;-66
2022/11/20 11:48:55;;;;;;;;;;;17.70;50.40;;;;;;5091091;28;20086;-66
2022/11/20 11:51:28;;;;;;;0.08;0.03;;;17.60;50.30;;;;;;5093421;28;19927;-64
2022/11/20 11:53:59;;;;;;;1.45;0.10;;;17.60;50.50;;;;;;5109833;28;20046;-65
2022/11/20 11:56:28;;;;;;;0.68;0.20;;;17.60;50.50;;;;;;5123207;27;20047;-64
2022/11/20 11:59:00;;;;;;;1.38;0.10;;;17.60;50.50;;;;;;5112473;27;20082;-64
2022/11/20 12:01:35;;;;;;;1.30;0.20;;;17.60;50.50;;;;;;5131411;27;20126;-64
2022/11/20 12:04:06;;;;;;;0.20;0.15;;;17.60;50.50;;;;;;5131460;27;20473;-64
2022/11/20 12:06:40;;;;;;;0.10;0.00;;;17.60;50.50;;;;;;5131501;27;20036;-65
2022/11/20 12:09:10;;;;;;;0.08;0.08;;;17.60;50.60;;;;;;5131709;27;20100;-64
2022/11/20 12:11:44;;;;;;;0.20;0.10;;;17.60;50.60;;;;;;5119840;27;20126;-64
2022/11/20 12:14:19;;;;;;;0.25;0.05;;;17.60;50.70;;;;;;5110190;28;20032;-64
2022/11/20 12:16:46;;;;;;;0.68;0.00;;;17.60;50.70;;;;;;5110668;28;20082;-64
2022/11/20 12:19:15;;;;;;;0.10;0.10;;;17.60;50.70;;;;;;5110668;28;20143;-64
2022/11/20 12:21:55;;;;;;;0.43;0.10;;;17.70;50.70;;;;;;5110233;28;20075;-64
2022/11/20 12:24:45;;;;;;;0.30;0.10;;;17.70;50.70;;;;;;5110380;28;20092;-64
2022/11/20 12:27:41;;;;;;;1.75;0.10;;;17.70;50.70;;;;;;5109833;28;20039;-65
2022/11/20 12:30:10;;;;;;;0.80;0.10;;;17.70;50.60;;;;;;5110355;28;20059;-66
2022/11/20 12:33:07;;;;;;;0.10;0.10;;;17.70;50.70;;;;;;5110235;28;20040;-63
2022/11/20 12:35:48;;;;;;;0.30;0.10;;;17.80;50.80;;;;;;5104868;28;20064;-64
2022/11/20 12:38:39;;;;;;;0.10;0.10;;;17.80;50.70;;;;;;5091076;28;20131;-64
2022/11/20 12:45:08;;;;;;;0.10;0.10;;;17.90;50.50;;;;;;5080807;28;20531;-64
2022/11/20 12:47:10;;;;;;;0.80;0.15;;;17.90;50.90;;;;;;5089582;28;20419;-64
2022/11/20 12:49:46;;;;;;;0.05;0.00;;;17.90;50.30;;;;;;5089605;28;20526;-64
2022/11/20 12:52:19;;;;;;;;;;;17.90;50.30;;;;;;5099547;28;20043;-64
2022/11/20 12:55:15;;;;;;;0.73;0.25;;;17.80;50.30;;;;;;5109965;28;19924;-65
2022/11/20 12:57:50;;;;;;;0.10;0.00;;;17.80;50.40;;;;;;5109388;28;20428;-65
2022/11/20 13:00:20;;;;;;;0.10;0.10;;;17.80;50.50;;;;;;5109998;28;20039;-66
2022/11/20 13:03:32;;;;;;;0.22;0.00;;;17.80;50.60;;;;;;5109769;28;20126;-65
2022/11/20 13:06:06;;;;;;;0.20;0.10;;;17.90;50.60;;;;;;5109318;28;20052;-65
2022/11/20 13:08:36;;;;;;;1.38;0.10;;;17.80;50.60;;;;;;5109461;28;20039;-65
2022/11/20 13:11:13;;;;;;;0.52;0.10;;;17.80;50.70;;;;;;5108967;28;20055;-64
2022/11/20 13:13:49;;;;;;;0.10;0.00;;;17.80;50.80;;;;;;5109364;28;20454;-66
2022/11/20 13:16:25;;;;;;;0.50;0.03;;;17.90;50.90;;;;;;5109354;28;20047;-64
2022/11/20 13:18:52;;;;;;;0.73;0.00;;;17.90;50.90;;;;;;5109338;28;20530;-63